General Abelardo L. Rodríguez International Airport
MMTJ : now visible

Airfield :











YOU CAN JOIN US ON...

 
LOGIN :

Register | Disclaimer

   EN    FR    IT 

 









Legend :    VFR   Marginal VFR   IFR   Intensive IFR   Very Intensive IFR
Visi :
Ceiling :
>= 8 km
>= 3000ft
5 to 8 km
1000 to 3000 ft
1500m to 5 km
500 to 1000 ft
800 to 1500m
200 to 500 ft
< 800m
< 200 ft
Symbols :   Thunderstorms  Fog  Heavy snow  Heavy precipitations  Wind > 20 kt






- Airport Elevation : 489 ft
- IATA code : TIJ


MMTJ - General Abelardo L. Rodríguez International

CURRENT METAR :
  • 191645Z 25006KT 7SM SKC 23/17 A2987 RMK HZ ST W

EXPIRED METARs :
  • 191549Z 33004KT 6SM BKN015 21/17 A2988 RMK 8/600 HZ BKNVSCT
  • 191445Z 30003KT 5SM OVC007 20/17 A2988 RMK SLP113 57001 976 8/6// HZ BINOVC

TAF TAF MMTJ
Valid from the 19 at 12:00 until the 20 at 18:00 UTC


191049Z 1912/2018 26005KT 6SM HZ OVC007 TX28/1920Z TN19/1912Z
TEMPO 1912/1915 3SM BR HZ OVC006
FM191600 00000KT 5SM HZ SCT010
FM191800 25010KT 6SM HZ SKC
FM200300 24005KT 6SM HZ SCT015
FM200800 00000KT 6SM HZ OVC009
TEMPO 2010/2014 3SM BR OVC006
MMFR FIR / North America



MET'MAP, your aeronautical weather chart ! - Copyright ORBIFLY December 2007 - Disclaimer

ORBIFLY MET'MAP TEAM :

Programming & Development : Alexandra Zaïnal
Original concept : Baudouin d'Aumeries
Technical & hardware support : Manuel Goepfert
Assistance : Marc-Olivier Méhu




SOURCES & CREDITS :

   NOAA       Earth
Advisory